sensor_id;sensor_type;location;lat;lon;timestamp;pressure;altitude;pressure_sealevel;temperature;humidity
71151;BME280;59071;42.138;24.768;2023-05-23T00:00:33;99386.69;;;18.15;68.47
71151;BME280;59071;42.138;24.768;2023-05-23T00:03:00;99388.72;;;18.51;67.43
71151;BME280;59071;42.138;24.768;2023-05-23T00:05:26;99378.81;;;18.67;66.14
71151;BME280;59071;42.138;24.768;2023-05-23T00:07:53;99377.97;;;18.51;65.91
71151;BME280;59071;42.138;24.768;2023-05-23T00:10:18;99380.44;;;18.00;67.60
71151;BME280;59071;42.138;24.768;2023-05-23T00:12:43;99379.03;;;17.54;68.90
71151;BME280;59071;42.138;24.768;2023-05-23T00:15:12;99378.78;;;16.91;71.75
71151;BME280;59071;42.138;24.768;2023-05-23T00:17:37;99377.56;;;17.09;71.83
71151;BME280;59071;42.138;24.768;2023-05-23T00:20:03;99376.78;;;17.09;70.81
71151;BME280;59071;42.138;24.768;2023-05-23T00:22:29;99373.84;;;17.10;71.71
71151;BME280;59071;42.138;24.768;2023-05-23T00:24:54;99380.44;;;17.62;69.05
71151;BME280;59071;42.138;24.768;2023-05-23T00:27:21;99367.59;;;17.37;69.90
71151;BME280;59071;42.138;24.768;2023-05-23T00:29:47;99374.03;;;17.31;70.35
71151;BME280;59071;42.138;24.768;2023-05-23T00:32:12;99364.13;;;17.36;69.85
71151;BME280;59071;42.138;24.768;2023-05-23T00:34:37;99370.38;;;17.47;69.54
71151;BME280;59071;42.138;24.768;2023-05-23T00:37:03;99372.19;;;17.36;70.71
71151;BME280;59071;42.138;24.768;2023-05-23T00:39:29;99375.66;;;16.77;72.75
71151;BME280;59071;42.138;24.768;2023-05-23T00:41:54;99366.06;;;17.14;71.50
71151;BME280;59071;42.138;24.768;2023-05-23T00:44:20;99364.69;;;17.11;70.63
71151;BME280;59071;42.138;24.768;2023-05-23T00:46:46;99365.34;;;17.24;70.32
71151;BME280;59071;42.138;24.768;2023-05-23T00:49:13;99362.03;;;16.84;71.31
71151;BME280;59071;42.138;24.768;2023-05-23T00:51:39;99364.72;;;16.84;72.04
71151;BME280;59071;42.138;24.768;2023-05-23T00:54:07;99363.47;;;16.70;73.18
71151;BME280;59071;42.138;24.768;2023-05-23T00:56:32;99365.09;;;16.93;71.95
71151;BME280;59071;42.138;24.768;2023-05-23T00:58:58;99362.69;;;16.47;73.80
71151;BME280;59071;42.138;24.768;2023-05-23T01:01:24;99363.03;;;16.78;73.24
71151;BME280;59071;42.138;24.768;2023-05-23T01:03:51;99342.84;;;16.75;72.20
71151;BME280;59071;42.138;24.768;2023-05-23T01:06:16;99365.25;;;16.59;73.60
71151;BME280;59071;42.138;24.768;2023-05-23T01:08:42;99359.22;;;17.01;72.06
71151;BME280;59071;42.138;24.768;2023-05-23T01:11:12;99354.47;;;17.08;71.76
71151;BME280;59071;42.138;24.768;2023-05-23T01:14:04;99355.75;;;16.78;72.26
71151;BME280;59071;42.138;24.768;2023-05-23T01:16:42;99354.78;;;16.85;72.27
71151;BME280;59071;42.138;24.768;2023-05-23T01:19:33;99355.91;;;16.39;73.86
71151;BME280;59071;42.138;24.768;2023-05-23T01:22:02;99352.75;;;16.70;72.77
71151;BME280;59071;42.138;24.768;2023-05-23T01:29:57;99350.00;;;17.56;69.38
71151;BME280;59071;42.138;24.768;2023-05-23T01:32:24;99354.91;;;17.27;70.00
71151;BME280;59071;42.138;24.768;2023-05-23T01:34:51;99351.41;;;16.72;71.82
71151;BME280;59071;42.138;24.768;2023-05-23T01:37:17;99350.91;;;17.35;69.99
71151;BME280;59071;42.138;24.768;2023-05-23T01:39:43;99352.47;;;17.63;68.80
71151;BME280;59071;42.138;24.768;2023-05-23T01:42:09;99350.38;;;17.38;69.02
71151;BME280;59071;42.138;24.768;2023-05-23T01:44:34;99346.69;;;17.49;68.88
71151;BME280;59071;42.138;24.768;2023-05-23T01:47:01;99352.56;;;17.41;68.94
71151;BME280;59071;42.138;24.768;2023-05-23T01:49:27;99351.94;;;17.29;69.65
71151;BME280;59071;42.138;24.768;2023-05-23T01:51:53;99342.63;;;17.09;69.01
71151;BME280;59071;42.138;24.768;2023-05-23T01:54:19;99347.69;;;17.00;70.19
71151;BME280;59071;42.138;24.768;2023-05-23T01:56:44;99344.88;;;17.23;69.68
71151;BME280;59071;42.138;24.768;2023-05-23T01:59:10;99348.88;;;17.15;69.38
71151;BME280;59071;42.138;24.768;2023-05-23T02:01:36;99341.16;;;17.24;69.07
71151;BME280;59071;42.138;24.768;2023-05-23T02:04:02;99338.78;;;16.73;71.31
71151;BME280;59071;42.138;24.768;2023-05-23T02:06:27;99341.75;;;16.98;70.64
71151;BME280;59071;42.138;24.768;2023-05-23T02:08:53;99338.16;;;15.94;74.10
71151;BME280;59071;42.138;24.768;2023-05-23T02:11:18;99335.78;;;16.42;73.22
71151;BME280;59071;42.138;24.768;2023-05-23T02:13:43;99329.66;;;16.02;73.14
71151;BME280;59071;42.138;24.768;2023-05-23T02:16:08;99335.03;;;15.80;73.51
71151;BME280;59071;42.138;24.768;2023-05-23T02:18:34;99336.34;;;16.00;71.64
71151;BME280;59071;42.138;24.768;2023-05-23T02:21:02;99338.22;;;16.21;72.03
71151;BME280;59071;42.138;24.768;2023-05-23T02:23:28;99341.66;;;15.95;72.20
71151;BME280;59071;42.138;24.768;2023-05-23T02:25:53;99341.16;;;16.42;70.55
71151;BME280;59071;42.138;24.768;2023-05-23T02:28:18;99336.69;;;17.02;67.90
71151;BME280;59071;42.138;24.768;2023-05-23T02:30:44;99332.13;;;16.80;68.82
71151;BME280;59071;42.138;24.768;2023-05-23T02:33:09;99341.88;;;17.14;68.28
71151;BME280;59071;42.138;24.768;2023-05-23T02:35:34;99345.91;;;16.84;68.01
71151;BME280;59071;42.138;24.768;2023-05-23T02:38:00;99345.16;;;16.89;68.81
71151;BME280;59071;42.138;24.768;2023-05-23T02:40:25;99355.09;;;17.20;67.62
71151;BME280;59071;42.138;24.768;2023-05-23T02:42:50;99340.50;;;17.11;67.21
71151;BME280;59071;42.138;24.768;2023-05-23T02:45:16;99343.75;;;17.51;66.31
71151;BME280;59071;42.138;24.768;2023-05-23T02:47:41;99343.56;;;17.57;65.95
71151;BME280;59071;42.138;24.768;2023-05-23T02:50:07;99341.19;;;17.29;66.82
71151;BME280;59071;42.138;24.768;2023-05-23T02:52:32;99334.75;;;16.97;67.90
71151;BME280;59071;42.138;24.768;2023-05-23T02:54:58;99335.53;;;17.30;67.00
71151;BME280;59071;42.138;24.768;2023-05-23T02:57:23;99338.78;;;17.32;66.58
71151;BME280;59071;42.138;24.768;2023-05-23T02:59:48;99350.47;;;17.48;66.09
71151;BME280;59071;42.138;24.768;2023-05-23T03:02:13;99343.03;;;17.23;66.83
71151;BME280;59071;42.138;24.768;2023-05-23T03:04:39;99340.16;;;17.03;68.12
71151;BME280;59071;42.138;24.768;2023-05-23T03:07:05;99342.75;;;17.19;67.06
71151;BME280;59071;42.138;24.768;2023-05-23T03:09:30;99336.81;;;16.90;67.78
71151;BME280;59071;42.138;24.768;2023-05-23T03:11:56;99330.03;;;17.10;67.23
71151;BME280;59071;42.138;24.768;2023-05-23T03:14:21;99340.97;;;17.03;67.95
71151;BME280;59071;42.138;24.768;2023-05-23T03:16:46;99333.16;;;17.02;67.50
71151;BME280;59071;42.138;24.768;2023-05-23T03:19:11;99335.66;;;17.13;66.96
71151;BME280;59071;42.138;24.768;2023-05-23T03:21:37;99338.94;;;16.83;68.09
71151;BME280;59071;42.138;24.768;2023-05-23T03:24:02;99337.19;;;16.50;69.85
71151;BME280;59071;42.138;24.768;2023-05-23T03:26:28;99338.72;;;16.40;70.95
71151;BME280;59071;42.138;24.768;2023-05-23T03:28:53;99344.47;;;16.76;68.94
71151;BME280;59071;42.138;24.768;2023-05-23T03:31:18;99341.84;;;16.32;70.53
71151;BME280;59071;42.138;24.768;2023-05-23T03:33:44;99340.97;;;16.49;70.85
71151;BME280;59071;42.138;24.768;2023-05-23T03:36:09;99337.47;;;16.75;69.02
71151;BME280;59071;42.138;24.768;2023-05-23T03:38:34;99338.63;;;16.35;70.56
71151;BME280;59071;42.138;24.768;2023-05-23T03:41:00;99343.09;;;16.25;70.91
71151;BME280;59071;42.138;24.768;2023-05-23T03:43:25;99336.34;;;16.44;70.55
71151;BME280;59071;42.138;24.768;2023-05-23T03:45:50;99343.34;;;16.45;71.14
71151;BME280;59071;42.138;24.768;2023-05-23T03:48:15;99351.66;;;15.99;72.34
71151;BME280;59071;42.138;24.768;2023-05-23T03:50:41;99344.22;;;16.07;72.92
71151;BME280;59071;42.138;24.768;2023-05-23T03:53:06;99340.72;;;16.06;71.09
71151;BME280;59071;42.138;24.768;2023-05-23T03:55:32;99346.19;;;16.60;72.57
71151;BME280;59071;42.138;24.768;2023-05-23T03:57:57;99347.56;;;17.17;70.00
71151;BME280;59071;42.138;24.768;2023-05-23T04:00:22;99347.56;;;17.23;66.92
71151;BME280;59071;42.138;24.768;2023-05-23T04:02:47;99346.03;;;17.69;64.80
71151;BME280;59071;42.138;24.768;2023-05-23T04:05:15;99342.84;;;17.35;65.29
71151;BME280;59071;42.138;24.768;2023-05-23T04:07:41;99346.69;;;17.44;65.32
71151;BME280;59071;42.138;24.768;2023-05-23T04:10:07;99355.16;;;17.63;64.53
71151;BME280;59071;42.138;24.768;2023-05-23T04:12:32;99353.88;;;17.76;63.61
71151;BME280;59071;42.138;24.768;2023-05-23T04:14:58;99353.25;;;18.06;61.83
71151;BME280;59071;42.138;24.768;2023-05-23T04:17:23;99352.78;;;18.20;62.17
71151;BME280;59071;42.138;24.768;2023-05-23T04:19:50;99349.97;;;18.67;60.23
71151;BME280;59071;42.138;24.768;2023-05-23T04:22:15;99348.78;;;18.32;59.73
71151;BME280;59071;42.138;24.768;2023-05-23T04:24:40;99351.91;;;18.82;58.80
71151;BME280;59071;42.138;24.768;2023-05-23T04:27:06;99347.88;;;19.21;56.89
71151;BME280;59071;42.138;24.768;2023-05-23T04:29:33;99347.06;;;19.51;55.72
71151;BME280;59071;42.138;24.768;2023-05-23T04:31:58;99355.44;;;18.93;55.97
71151;BME280;59071;42.138;24.768;2023-05-23T04:34:23;99356.28;;;19.19;56.11
71151;BME280;59071;42.138;24.768;2023-05-23T04:36:49;99357.06;;;19.45;55.56
71151;BME280;59071;42.138;24.768;2023-05-23T04:39:14;99360.69;;;20.21;54.15
71151;BME280;59071;42.138;24.768;2023-05-23T04:41:40;99360.34;;;20.38;54.67
71151;BME280;59071;42.138;24.768;2023-05-23T04:44:06;99361.06;;;20.64;52.92
71151;BME280;59071;42.138;24.768;2023-05-23T04:46:31;99363.94;;;21.18;52.06
71151;BME280;59071;42.138;24.768;2023-05-23T04:48:56;99358.44;;;21.28;51.25
71151;BME280;59071;42.138;24.768;2023-05-23T04:51:23;99367.44;;;22.06;49.77
71151;BME280;59071;42.138;24.768;2023-05-23T04:53:49;99368.66;;;22.43;48.06
71151;BME280;59071;42.138;24.768;2023-05-23T04:56:15;99367.94;;;23.13;46.78
71151;BME280;59071;42.138;24.768;2023-05-23T04:58:42;99373.56;;;23.17;46.21
71151;BME280;59071;42.138;24.768;2023-05-23T05:01:09;99370.22;;;22.87;46.42
71151;BME280;59071;42.138;24.768;2023-05-23T05:03:34;99369.81;;;23.32;46.39
71151;BME280;59071;42.138;24.768;2023-05-23T05:06:00;99371.53;;;23.41;45.70
71151;BME280;59071;42.138;24.768;2023-05-23T05:08:25;99367.63;;;24.08;44.29
71151;BME280;59071;42.138;24.768;2023-05-23T05:10:51;99369.50;;;24.77;43.13
71151;BME280;59071;42.138;24.768;2023-05-23T05:13:16;99362.78;;;24.33;43.63
71151;BME280;59071;42.138;24.768;2023-05-23T05:15:41;99372.88;;;24.83;43.05
71151;BME280;59071;42.138;24.768;2023-05-23T05:18:07;99375.31;;;25.07;41.69
71151;BME280;59071;42.138;24.768;2023-05-23T05:20:32;99374.66;;;25.46;41.29
71151;BME280;59071;42.138;24.768;2023-05-23T05:22:57;99374.44;;;25.97;40.01
71151;BME280;59071;42.138;24.768;2023-05-23T05:25:22;99378.84;;;25.84;40.48
71151;BME280;59071;42.138;24.768;2023-05-23T05:27:48;99374.81;;;26.12;40.18
71151;BME280;59071;42.138;24.768;2023-05-23T05:30:13;99371.44;;;25.44;40.40
71151;BME280;59071;42.138;24.768;2023-05-23T05:32:39;99381.38;;;25.04;40.85
71151;BME280;59071;42.138;24.768;2023-05-23T05:35:04;99385.19;;;24.80;41.94
71151;BME280;59071;42.138;24.768;2023-05-23T05:37:31;99393.81;;;23.57;43.99
71151;BME280;59071;42.138;24.768;2023-05-23T05:39:57;99388.47;;;23.99;43.92
71151;BME280;59071;42.138;24.768;2023-05-23T05:42:23;99387.84;;;24.02;43.99
71151;BME280;59071;42.138;24.768;2023-05-23T05:44:48;99394.91;;;23.23;45.49
71151;BME280;59071;42.138;24.768;2023-05-23T05:47:14;99390.69;;;23.50;45.42
71151;BME280;59071;42.138;24.768;2023-05-23T05:49:39;99388.34;;;23.90;44.94
71151;BME280;59071;42.138;24.768;2023-05-23T05:52:05;99383.34;;;23.97;44.80
71151;BME280;59071;42.138;24.768;2023-05-23T05:54:31;99393.50;;;24.06;45.19
71151;BME280;59071;42.138;24.768;2023-05-23T05:56:57;99393.69;;;24.51;43.70
71151;BME280;59071;42.138;24.768;2023-05-23T05:59:22;99388.69;;;25.17;43.00
71151;BME280;59071;42.138;24.768;2023-05-23T06:01:47;99396.06;;;25.39;42.26
71151;BME280;59071;42.138;24.768;2023-05-23T06:04:15;99384.31;;;25.84;41.71
71151;BME280;59071;42.138;24.768;2023-05-23T06:06:40;99394.69;;;24.69;42.83
71151;BME280;59071;42.138;24.768;2023-05-23T06:09:05;99386.22;;;25.52;42.10
71151;BME280;59071;42.138;24.768;2023-05-23T06:11:31;99396.91;;;26.02;40.59
71151;BME280;59071;42.138;24.768;2023-05-23T06:13:56;99392.41;;;26.06;40.32
71151;BME280;59071;42.138;24.768;2023-05-23T06:16:21;99394.59;;;25.33;41.11
71151;BME280;59071;42.138;24.768;2023-05-23T06:18:46;99388.44;;;25.50;40.86
71151;BME280;59071;42.138;24.768;2023-05-23T06:21:12;99383.47;;;25.83;41.23
71151;BME280;59071;42.138;24.768;2023-05-23T06:23:37;99385.72;;;26.12;40.08
71151;BME280;59071;42.138;24.768;2023-05-23T06:26:02;99391.88;;;26.36;39.30
71151;BME280;59071;42.138;24.768;2023-05-23T06:28:32;99391.50;;;26.68;39.33
71151;BME280;59071;42.138;24.768;2023-05-23T06:30:57;99386.38;;;27.02;38.50
71151;BME280;59071;42.138;24.768;2023-05-23T06:33:22;99382.03;;;26.83;38.27
71151;BME280;59071;42.138;24.768;2023-05-23T06:35:47;99386.19;;;27.07;37.88
71151;BME280;59071;42.138;24.768;2023-05-23T06:38:13;99384.22;;;27.51;37.71
71151;BME280;59071;42.138;24.768;2023-05-23T06:40:38;99382.34;;;28.58;36.73
71151;BME280;59071;42.138;24.768;2023-05-23T06:43:03;99384.44;;;29.37;34.49
71151;BME280;59071;42.138;24.768;2023-05-23T06:45:28;99375.59;;;29.52;33.42
71151;BME280;59071;42.138;24.768;2023-05-23T06:47:54;99379.19;;;29.77;33.72
71151;BME280;59071;42.138;24.768;2023-05-23T06:50:19;99367.00;;;28.66;35.38
71151;BME280;59071;42.138;24.768;2023-05-23T06:52:44;99369.38;;;29.76;34.66
71151;BME280;59071;42.138;24.768;2023-05-23T06:55:11;99363.16;;;29.67;33.77
71151;BME280;59071;42.138;24.768;2023-05-23T06:57:42;99369.16;;;30.43;32.39
71151;BME280;59071;42.138;24.768;2023-05-23T07:00:07;99367.97;;;31.09;32.59
71151;BME280;59071;42.138;24.768;2023-05-23T07:02:33;99369.28;;;31.44;31.70
71151;BME280;59071;42.138;24.768;2023-05-23T07:04:58;99366.72;;;31.51;31.18
71151;BME280;59071;42.138;24.768;2023-05-23T07:07:23;99360.66;;;30.60;32.33
71151;BME280;59071;42.138;24.768;2023-05-23T07:09:48;99364.34;;;29.33;34.31
71151;BME280;59071;42.138;24.768;2023-05-23T07:12:14;99363.56;;;29.11;34.49
71151;BME280;59071;42.138;24.768;2023-05-23T07:14:39;99361.06;;;29.97;33.64
71151;BME280;59071;42.138;24.768;2023-05-23T07:17:04;99364.13;;;30.45;32.57
71151;BME280;59071;42.138;24.768;2023-05-23T07:19:30;99368.56;;;30.00;32.79
71151;BME280;59071;42.138;24.768;2023-05-23T07:21:55;99357.81;;;30.57;32.65
71151;BME280;59071;42.138;24.768;2023-05-23T07:24:20;99364.19;;;31.74;31.09
71151;BME280;59071;42.138;24.768;2023-05-23T07:26:46;99368.13;;;31.16;32.26
71151;BME280;59071;42.138;24.768;2023-05-23T07:29:11;99359.56;;;31.62;31.35
71151;BME280;59071;42.138;24.768;2023-05-23T07:31:36;99356.09;;;31.65;31.47
71151;BME280;59071;42.138;24.768;2023-05-23T07:34:01;99356.09;;;32.13;30.67
71151;BME280;59071;42.138;24.768;2023-05-23T07:36:27;99355.56;;;32.78;30.03
71151;BME280;59071;42.138;24.768;2023-05-23T07:38:53;99346.41;;;32.54;30.29
71151;BME280;59071;42.138;24.768;2023-05-23T07:41:18;99347.47;;;32.66;30.22
71151;BME280;59071;42.138;24.768;2023-05-23T07:43:44;99347.16;;;32.71;29.90
71151;BME280;59071;42.138;24.768;2023-05-23T07:46:09;99350.63;;;33.26;29.38
71151;BME280;59071;42.138;24.768;2023-05-23T07:48:34;99354.34;;;34.07;28.31
71151;BME280;59071;42.138;24.768;2023-05-23T07:50:59;99351.59;;;34.07;28.18
71151;BME280;59071;42.138;24.768;2023-05-23T07:53:25;99353.91;;;33.32;28.38
71151;BME280;59071;42.138;24.768;2023-05-23T07:55:50;99348.63;;;33.46;27.67
71151;BME280;59071;42.138;24.768;2023-05-23T07:58:15;99349.22;;;33.13;28.51
71151;BME280;59071;42.138;24.768;2023-05-23T08:00:41;99348.41;;;32.73;28.64
71151;BME280;59071;42.138;24.768;2023-05-23T08:03:08;99346.22;;;33.02;28.41
71151;BME280;59071;42.138;24.768;2023-05-23T08:05:33;99338.19;;;32.74;28.49
71151;BME280;59071;42.138;24.768;2023-05-23T08:07:58;99338.69;;;33.42;26.91
71151;BME280;59071;42.138;24.768;2023-05-23T08:10:24;99341.03;;;33.40;26.93
71151;BME280;59071;42.138;24.768;2023-05-23T08:12:52;99347.66;;;33.81;26.62
71151;BME280;59071;42.138;24.768;2023-05-23T08:15:17;99342.72;;;33.94;27.03
71151;BME280;59071;42.138;24.768;2023-05-23T08:17:42;99343.13;;;34.19;26.73
71151;BME280;59071;42.138;24.768;2023-05-23T08:20:08;99340.88;;;34.02;26.98
71151;BME280;59071;42.138;24.768;2023-05-23T08:22:34;99336.25;;;34.36;26.43
71151;BME280;59071;42.138;24.768;2023-05-23T08:25:00;99338.78;;;35.13;25.00
71151;BME280;59071;42.138;24.768;2023-05-23T08:27:26;99337.19;;;35.12;24.77
71151;BME280;59071;42.138;24.768;2023-05-23T08:29:52;99330.84;;;34.74;24.64
71151;BME280;59071;42.138;24.768;2023-05-23T08:32:17;99337.09;;;35.83;23.77
71151;BME280;59071;42.138;24.768;2023-05-23T08:34:42;99333.03;;;36.18;23.51
71151;BME280;59071;42.138;24.768;2023-05-23T08:37:08;99331.09;;;36.26;22.98
71151;BME280;59071;42.138;24.768;2023-05-23T08:39:33;99333.31;;;35.57;23.07
71151;BME280;59071;42.138;24.768;2023-05-23T08:41:59;99323.22;;;34.63;24.43
71151;BME280;59071;42.138;24.768;2023-05-23T08:44:24;99329.03;;;33.52;25.80
71151;BME280;59071;42.138;24.768;2023-05-23T08:46:51;99321.47;;;33.48;24.88
71151;BME280;59071;42.138;24.768;2023-05-23T08:49:17;99324.94;;;33.65;25.05
71151;BME280;59071;42.138;24.768;2023-05-23T08:51:42;99320.88;;;34.08;25.80
71151;BME280;59071;42.138;24.768;2023-05-23T08:54:08;99326.09;;;33.64;25.59
71151;BME280;59071;42.138;24.768;2023-05-23T08:56:35;99321.03;;;34.19;24.76
71151;BME280;59071;42.138;24.768;2023-05-23T08:59:01;99323.56;;;35.30;23.83
71151;BME280;59071;42.138;24.768;2023-05-23T09:01:27;99327.72;;;35.95;23.75
71151;BME280;59071;42.138;24.768;2023-05-23T09:03:53;99326.22;;;36.12;22.78
71151;BME280;59071;42.138;24.768;2023-05-23T09:06:22;99330.28;;;36.29;22.84
71151;BME280;59071;42.138;24.768;2023-05-23T09:08:47;99321.41;;;36.01;22.49
71151;BME280;59071;42.138;24.768;2023-05-23T09:11:13;99321.75;;;35.44;22.98
71151;BME280;59071;42.138;24.768;2023-05-23T09:13:38;99310.34;;;36.01;22.66
71151;BME280;59071;42.138;24.768;2023-05-23T09:16:08;99315.13;;;36.85;21.97
71151;BME280;59071;42.138;24.768;2023-05-23T09:21:00;99315.25;;;37.57;20.23
71151;BME280;59071;42.138;24.768;2023-05-23T09:23:25;99321.84;;;36.84;20.34
71151;BME280;59071;42.138;24.768;2023-05-23T09:25:53;99314.94;;;33.57;22.50
71151;BME280;59071;42.138;24.768;2023-05-23T09:28:18;99316.44;;;31.82;25.38
71151;BME280;59071;42.138;24.768;2023-05-23T09:30:43;99323.59;;;31.39;25.75
71151;BME280;59071;42.138;24.768;2023-05-23T09:33:08;99315.56;;;31.78;25.67
71151;BME280;59071;42.138;24.768;2023-05-23T09:35:34;99322.13;;;32.41;24.79
71151;BME280;59071;42.138;24.768;2023-05-23T09:37:59;99310.78;;;32.81;24.37
71151;BME280;59071;42.138;24.768;2023-05-23T09:40:30;99320.03;;;33.12;24.51
71151;BME280;59071;42.138;24.768;2023-05-23T09:43:00;99314.75;;;33.69;24.83
71151;BME280;59071;42.138;24.768;2023-05-23T09:45:28;99309.16;;;33.65;24.10
71151;BME280;59071;42.138;24.768;2023-05-23T09:47:53;99308.41;;;33.03;24.24
71151;BME280;59071;42.138;24.768;2023-05-23T09:50:19;99309.16;;;32.06;25.97
71151;BME280;59071;42.138;24.768;2023-05-23T09:52:45;99311.91;;;33.19;24.74
71151;BME280;59071;42.138;24.768;2023-05-23T09:55:11;99307.25;;;33.46;23.97
71151;BME280;59071;42.138;24.768;2023-05-23T09:57:38;99305.94;;;34.13;23.37
71151;BME280;59071;42.138;24.768;2023-05-23T10:00:04;99306.69;;;34.67;23.04
71151;BME280;59071;42.138;24.768;2023-05-23T10:05:23;99301.22;;;34.71;22.73
71151;BME280;59071;42.138;24.768;2023-05-23T10:07:52;99303.41;;;33.51;24.17
71151;BME280;59071;42.138;24.768;2023-05-23T10:10:17;99299.09;;;34.03;23.70
71151;BME280;59071;42.138;24.768;2023-05-23T10:12:48;99290.66;;;33.93;23.54
71151;BME280;59071;42.138;24.768;2023-05-23T10:15:14;99295.56;;;34.03;23.63
71151;BME280;59071;42.138;24.768;2023-05-23T10:20:25;99291.09;;;34.21;23.29
71151;BME280;59071;42.138;24.768;2023-05-23T10:22:52;99297.44;;;34.52;22.94
71151;BME280;59071;42.138;24.768;2023-05-23T10:25:18;99294.38;;;34.31;23.59
71151;BME280;59071;42.138;24.768;2023-05-23T10:27:43;99291.56;;;34.57;23.15
71151;BME280;59071;42.138;24.768;2023-05-23T10:30:09;99287.44;;;34.44;22.09
71151;BME280;59071;42.138;24.768;2023-05-23T10:32:38;99284.47;;;34.26;23.04
71151;BME280;59071;42.138;24.768;2023-05-23T10:38:25;99281.22;;;32.59;24.57
71151;BME280;59071;42.138;24.768;2023-05-23T10:40:30;99275.78;;;32.62;24.50
71151;BME280;59071;42.138;24.768;2023-05-23T10:45:26;99282.34;;;31.87;25.98
71151;BME280;59071;42.138;24.768;2023-05-23T10:47:52;99273.44;;;31.58;25.81
71151;BME280;59071;42.138;24.768;2023-05-23T10:50:33;99278.09;;;31.10;27.46
71151;BME280;59071;42.138;24.768;2023-05-23T10:53:03;99275.88;;;30.18;30.15
71151;BME280;59071;42.138;24.768;2023-05-23T10:55:33;99285.22;;;30.42;28.80
71151;BME280;59071;42.138;24.768;2023-05-23T10:58:17;99271.16;;;30.31;29.58
71151;BME280;59071;42.138;24.768;2023-05-23T11:00:51;99277.16;;;30.62;28.90
71151;BME280;59071;42.138;24.768;2023-05-23T11:03:17;99279.75;;;30.17;29.16
71151;BME280;59071;42.138;24.768;2023-05-23T11:05:46;99273.91;;;30.44;28.97
71151;BME280;59071;42.138;24.768;2023-05-23T11:08:12;99275.28;;;30.37;28.27
71151;BME280;59071;42.138;24.768;2023-05-23T11:10:54;99277.59;;;30.92;27.70
71151;BME280;59071;42.138;24.768;2023-05-23T11:13:20;99280.06;;;31.41;28.12
71151;BME280;59071;42.138;24.768;2023-05-23T11:15:45;99280.75;;;31.22;28.39
71151;BME280;59071;42.138;24.768;2023-05-23T11:18:21;99275.00;;;30.83;28.43
71151;BME280;59071;42.138;24.768;2023-05-23T11:20:47;99287.66;;;31.16;28.44
71151;BME280;59071;42.138;24.768;2023-05-23T11:23:13;99279.22;;;30.80;28.64
71151;BME280;59071;42.138;24.768;2023-05-23T11:25:47;99285.72;;;30.32;29.35
71151;BME280;59071;42.138;24.768;2023-05-23T11:28:12;99279.78;;;29.56;29.95
71151;BME280;59071;42.138;24.768;2023-05-23T11:30:38;99278.28;;;30.20;28.90
71151;BME280;59071;42.138;24.768;2023-05-23T11:33:07;99279.44;;;29.94;28.69
71151;BME280;59071;42.138;24.768;2023-05-23T11:35:34;99277.59;;;30.11;28.86
71151;BME280;59071;42.138;24.768;2023-05-23T11:38:01;99271.59;;;30.46;28.43
71151;BME280;59071;42.138;24.768;2023-05-23T11:40:36;99276.78;;;30.23;28.02
71151;BME280;59071;42.138;24.768;2023-05-23T11:43:03;99279.22;;;29.99;28.00
71151;BME280;59071;42.138;24.768;2023-05-23T11:45:29;99278.16;;;28.97;29.88
71151;BME280;59071;42.138;24.768;2023-05-23T11:47:55;99279.69;;;29.89;29.33
71151;BME280;59071;42.138;24.768;2023-05-23T11:50:21;99279.38;;;31.60;27.12
71151;BME280;59071;42.138;24.768;2023-05-23T11:52:46;99275.69;;;32.04;26.85
71151;BME280;59071;42.138;24.768;2023-05-23T11:55:22;99284.16;;;32.89;25.41
71151;BME280;59071;42.138;24.768;2023-05-23T11:57:48;99307.19;;;31.43;28.70
71151;BME280;59071;42.138;24.768;2023-05-23T12:00:14;99303.00;;;29.83;33.07
71151;BME280;59071;42.138;24.768;2023-05-23T12:02:40;99297.06;;;28.56;36.02
71151;BME280;59071;42.138;24.768;2023-05-23T12:05:07;99317.00;;;28.27;36.12
71151;BME280;59071;42.138;24.768;2023-05-23T12:07:32;99309.75;;;27.16;38.39
71151;BME280;59071;42.138;24.768;2023-05-23T12:09:58;99297.59;;;26.61;38.41
71151;BME280;59071;42.138;24.768;2023-05-23T12:12:23;99295.00;;;26.90;37.83
71151;BME280;59071;42.138;24.768;2023-05-23T12:14:48;99298.34;;;27.05;36.47
71151;BME280;59071;42.138;24.768;2023-05-23T12:17:13;99296.25;;;26.14;37.55
71151;BME280;59071;42.138;24.768;2023-05-23T12:19:39;99297.13;;;25.92;37.26
71151;BME280;59071;42.138;24.768;2023-05-23T12:22:05;99283.97;;;25.86;38.06
71151;BME280;59071;42.138;24.768;2023-05-23T12:24:31;99288.41;;;26.22;37.97
71151;BME280;59071;42.138;24.768;2023-05-23T12:26:57;99278.28;;;26.31;38.04
71151;BME280;59071;42.138;24.768;2023-05-23T12:29:35;99260.31;;;26.12;37.96
71151;BME280;59071;42.138;24.768;2023-05-23T12:32:02;99272.19;;;26.86;37.31
71151;BME280;59071;42.138;24.768;2023-05-23T12:34:27;99271.53;;;25.62;39.14
71151;BME280;59071;42.138;24.768;2023-05-23T12:36:56;99272.13;;;25.19;39.71
71151;BME280;59071;42.138;24.768;2023-05-23T12:39:28;99264.81;;;25.28;39.12
71151;BME280;59071;42.138;24.768;2023-05-23T12:41:54;99253.06;;;25.50;39.73
71151;BME280;59071;42.138;24.768;2023-05-23T12:44:20;99252.91;;;25.96;38.52
71151;BME280;59071;42.138;24.768;2023-05-23T12:46:45;99249.22;;;26.00;37.92
71151;BME280;59071;42.138;24.768;2023-05-23T12:49:12;99246.66;;;25.95;38.72
71151;BME280;59071;42.138;24.768;2023-05-23T12:51:37;99241.56;;;26.37;38.77
71151;BME280;59071;42.138;24.768;2023-05-23T12:54:02;99236.44;;;26.70;38.39
71151;BME280;59071;42.138;24.768;2023-05-23T12:56:28;99242.81;;;26.92;36.70
71151;BME280;59071;42.138;24.768;2023-05-23T12:58:53;99230.81;;;27.32;36.69
71151;BME280;59071;42.138;24.768;2023-05-23T13:01:19;99244.09;;;26.86;37.97
71151;BME280;59071;42.138;24.768;2023-05-23T13:03:44;99235.34;;;27.27;37.63